createdAt,value
2023-04-29T00:01:03.613Z,11.82
2023-04-29T00:03:32.532Z,11.91
2023-04-29T00:06:00.164Z,11.92
2023-04-29T00:08:27.203Z,11.89
2023-04-29T00:10:53.850Z,11.89
2023-04-29T00:13:20.920Z,11.86
2023-04-29T00:15:47.969Z,11.86
2023-04-29T00:18:14.499Z,11.78
2023-04-29T00:20:41.888Z,11.78
2023-04-29T00:23:08.648Z,11.72
2023-04-29T00:25:35.358Z,11.75
2023-04-29T00:28:02.273Z,11.70
2023-04-29T00:30:29.158Z,11.70
2023-04-29T00:32:55.870Z,11.67
2023-04-29T00:35:22.489Z,11.71
2023-04-29T00:37:49.214Z,11.62
2023-04-29T00:40:17.376Z,11.60
2023-04-29T00:42:43.986Z,11.58
2023-04-29T00:45:11.538Z,11.53
2023-04-29T00:47:38.971Z,11.47
2023-04-29T00:50:07.763Z,11.58
2023-04-29T00:52:35.204Z,11.51
2023-04-29T00:55:02.706Z,11.50
2023-04-29T00:57:30.138Z,11.40
2023-04-29T01:00:00.547Z,11.31
2023-04-29T01:02:28.306Z,11.26
2023-04-29T01:04:55.582Z,11.45
2023-04-29T01:07:45.396Z,11.40
2023-04-29T01:10:29.457Z,11.37
2023-04-29T01:13:05.918Z,11.50
2023-04-29T01:15:46.687Z,11.40
2023-04-29T01:18:20.600Z,11.31
2023-04-29T01:20:47.858Z,11.23
2023-04-29T01:23:14.729Z,11.16
2023-04-29T01:25:41.407Z,11.16
2023-04-29T01:28:29.912Z,11.16
2023-04-29T01:31:02.195Z,11.13
2023-04-29T01:33:46.952Z,11.13
2023-04-29T01:36:32.122Z,11.22
2023-04-29T01:39:21.267Z,11.34
2023-04-29T01:41:58.840Z,11.30
2023-04-29T01:44:29.177Z,11.28
2023-04-29T01:46:56.553Z,11.13
2023-04-29T01:49:27.909Z,11.04
2023-04-29T01:51:54.806Z,11.04
2023-04-29T01:54:22.538Z,11.00
2023-04-29T01:56:49.400Z,10.97
2023-04-29T01:59:16.357Z,10.89
2023-04-29T02:01:43.067Z,10.88
2023-04-29T02:04:09.875Z,10.80
2023-04-29T02:06:36.632Z,10.77
2023-04-29T02:09:03.414Z,10.73
2023-04-29T02:11:30.187Z,10.71
2023-04-29T02:13:56.867Z,10.65
2023-04-29T02:16:24.262Z,10.61
2023-04-29T02:18:51.377Z,10.59
2023-04-29T02:21:18.162Z,10.58
2023-04-29T02:23:44.779Z,10.61
2023-04-29T02:26:11.962Z,10.63
2023-04-29T02:28:38.766Z,10.66
2023-04-29T02:31:05.533Z,10.65
2023-04-29T02:33:33.019Z,10.68
2023-04-29T02:35:59.784Z,10.69
2023-04-29T02:38:26.632Z,10.69
2023-04-29T02:40:53.361Z,10.69
2023-04-29T02:43:19.880Z,10.72
2023-04-29T02:45:46.529Z,10.75
2023-04-29T02:48:13.102Z,10.76
2023-04-29T02:50:39.705Z,10.72
2023-04-29T02:53:06.367Z,10.76
2023-04-29T02:55:33.006Z,10.73
2023-04-29T02:57:59.646Z,10.72
2023-04-29T03:00:26.237Z,10.80
2023-04-29T03:02:53.400Z,10.77
2023-04-29T03:05:20.208Z,10.79
2023-04-29T03:07:46.740Z,10.80
2023-04-29T03:10:13.425Z,10.80
2023-04-29T03:12:40.082Z,10.72
2023-04-29T03:15:07.997Z,10.76
2023-04-29T03:17:34.851Z,10.71
2023-04-29T03:20:01.680Z,10.71
2023-04-29T03:22:28.281Z,10.73
2023-04-29T03:24:54.998Z,10.71
2023-04-29T03:27:22.161Z,10.71
2023-04-29T03:29:49.341Z,10.72
2023-04-29T03:32:16.166Z,10.71
2023-04-29T03:34:42.771Z,10.72
2023-04-29T03:37:09.309Z,10.73
2023-04-29T03:39:36.084Z,10.72
2023-04-29T03:42:03.088Z,10.72
2023-04-29T03:44:29.861Z,10.73
2023-04-29T03:46:56.516Z,10.69
2023-04-29T03:49:23.726Z,10.71
2023-04-29T03:51:50.756Z,10.76
2023-04-29T03:54:17.622Z,10.75
2023-04-29T03:56:44.415Z,10.77
2023-04-29T03:59:10.966Z,10.73
2023-04-29T04:01:37.684Z,10.79
2023-04-29T04:04:04.637Z,10.79
2023-04-29T04:06:31.850Z,10.79
2023-04-29T04:08:58.540Z,10.83
2023-04-29T04:11:25.201Z,10.86
2023-04-29T04:13:52.081Z,10.86
2023-04-29T04:16:18.719Z,10.85
2023-04-29T04:18:45.328Z,10.88
2023-04-29T04:21:12.711Z,10.89
2023-04-29T04:23:41.224Z,10.89
2023-04-29T04:26:08.567Z,10.88
2023-04-29T04:28:35.379Z,10.95
2023-04-29T04:31:02.438Z,10.97
2023-04-29T04:33:29.189Z,10.97
2023-04-29T04:35:55.736Z,10.99
2023-04-29T04:38:25.349Z,11.00
2023-04-29T04:40:52.069Z,11.06
2023-04-29T04:43:18.884Z,11.09
2023-04-29T04:45:45.572Z,11.07
2023-04-29T04:48:12.162Z,11.10
2023-04-29T04:50:38.882Z,11.07
2023-04-29T04:53:05.623Z,11.04
2023-04-29T04:55:33.517Z,11.12
2023-04-29T04:58:00.234Z,11.10
2023-04-29T05:00:26.897Z,11.10
2023-04-29T05:02:53.611Z,11.12
2023-04-29T05:05:20.246Z,11.13
2023-04-29T05:07:47.263Z,11.13
2023-04-29T05:10:13.857Z,11.17
2023-04-29T05:12:40.594Z,11.19
2023-04-29T05:15:07.908Z,11.20
2023-04-29T05:17:36.365Z,11.23
2023-04-29T05:20:03.514Z,11.22
2023-04-29T05:22:30.070Z,11.24
2023-04-29T05:25:02.663Z,11.22
2023-04-29T05:27:29.745Z,11.24
2023-04-29T05:29:57.021Z,11.23
2023-04-29T05:32:23.960Z,11.27
2023-04-29T05:34:51.065Z,11.28
2023-04-29T05:37:17.617Z,11.31
2023-04-29T05:39:44.424Z,11.34
2023-04-29T05:42:11.044Z,11.33
2023-04-29T05:44:37.860Z,11.34
2023-04-29T05:47:04.459Z,11.33
2023-04-29T05:49:31.040Z,11.34
2023-04-29T05:51:57.610Z,11.40
2023-04-29T05:54:24.169Z,11.40
2023-04-29T05:56:50.891Z,11.41
2023-04-29T05:59:17.560Z,11.48
2023-04-29T06:01:44.093Z,11.53
2023-04-29T06:04:10.754Z,11.53
2023-04-29T06:06:37.724Z,11.57
2023-04-29T06:09:08.557Z,11.54
2023-04-29T06:11:40.171Z,11.54
2023-04-29T06:14:06.963Z,11.61
2023-04-29T06:16:34.009Z,11.60
2023-04-29T06:19:00.718Z,11.60
2023-04-29T06:21:28.128Z,11.68
2023-04-29T06:23:55.092Z,11.71
2023-04-29T06:26:21.628Z,11.62
2023-04-29T06:28:48.326Z,11.61
2023-04-29T06:31:14.918Z,11.58
2023-04-29T06:33:41.887Z,11.64
2023-04-29T06:36:08.508Z,11.62
2023-04-29T06:38:35.110Z,11.67
2023-04-29T06:41:01.757Z,11.65
2023-04-29T06:43:30.348Z,11.68
2023-04-29T06:45:57.441Z,11.62
2023-04-29T06:48:24.074Z,11.60
2023-04-29T06:50:58.347Z,11.60
2023-04-29T06:53:24.975Z,11.62
2023-04-29T06:55:51.828Z,11.64
2023-04-29T06:58:19.670Z,11.58
2023-04-29T07:00:48.180Z,11.51
2023-04-29T07:03:15.635Z,11.57
2023-04-29T07:05:45.276Z,11.50
2023-04-29T07:08:13.323Z,11.43
2023-04-29T07:10:41.467Z,11.50
2023-04-29T07:13:08.161Z,11.48
2023-04-29T07:15:36.316Z,11.54
2023-04-29T07:18:06.712Z,11.48
2023-04-29T07:20:36.372Z,11.37
2023-04-29T07:23:02.980Z,11.37
2023-04-29T07:25:29.643Z,11.44
2023-04-29T07:27:56.802Z,11.45
2023-04-29T07:30:24.050Z,11.43
2023-04-29T07:32:50.795Z,11.35
2023-04-29T07:35:17.664Z,11.38
2023-04-29T07:37:45.652Z,11.38
2023-04-29T07:40:12.822Z,11.45
2023-04-29T07:42:40.304Z,11.55
2023-04-29T07:45:07.591Z,11.62
2023-04-29T07:47:34.173Z,11.60
2023-04-29T07:50:00.971Z,11.57
2023-04-29T07:52:27.630Z,11.55
2023-04-29T07:54:56.202Z,11.58
2023-04-29T07:57:22.884Z,11.54
2023-04-29T07:59:53.794Z,11.51
2023-04-29T08:02:20.682Z,11.54
2023-04-29T08:04:47.934Z,11.54
2023-04-29T08:07:14.758Z,11.55
2023-04-29T08:09:41.430Z,11.51
2023-04-29T08:12:08.419Z,11.61
2023-04-29T08:14:34.993Z,11.61
2023-04-29T08:17:01.516Z,11.60
2023-04-29T08:19:28.111Z,11.51
2023-04-29T08:21:54.937Z,11.51
2023-04-29T08:24:22.352Z,11.41
2023-04-29T08:26:48.877Z,11.38
2023-04-29T08:29:16.171Z,11.34
2023-04-29T08:31:42.751Z,11.26
2023-04-29T08:34:09.392Z,11.23
2023-04-29T08:36:38.588Z,11.19
2023-04-29T08:39:05.205Z,11.07
2023-04-29T08:41:33.232Z,11.00
2023-04-29T08:44:00.962Z,11.02
2023-04-29T08:46:27.904Z,11.06
2023-04-29T08:48:56.584Z,11.04
2023-04-29T08:51:23.166Z,10.99
2023-04-29T08:53:49.982Z,10.96
2023-04-29T08:56:21.396Z,10.96
2023-04-29T08:58:54.420Z,10.93
2023-04-29T09:01:23.058Z,10.99
2023-04-29T09:04:27.477Z,10.91
2023-04-29T09:06:56.859Z,10.86
2023-04-29T09:09:25.054Z,10.80
2023-04-29T09:11:52.153Z,10.82
2023-04-29T09:14:19.294Z,10.82
2023-04-29T09:16:49.065Z,10.83
2023-04-29T09:19:31.919Z,10.89
2023-04-29T09:21:58.790Z,10.92
2023-04-29T09:24:30.169Z,10.97
2023-04-29T09:26:57.513Z,11.04
2023-04-29T09:29:24.707Z,11.04
2023-04-29T09:31:54.724Z,11.20
2023-04-29T09:34:32.671Z,11.30
2023-04-29T09:36:59.285Z,11.50
2023-04-29T09:39:26.290Z,11.65
2023-04-29T09:41:52.845Z,11.79
2023-04-29T09:44:27.638Z,11.92
2023-04-29T09:47:03.198Z,11.91
2023-04-29T09:49:32.848Z,11.99
2023-04-29T09:52:04.657Z,12.08
2023-04-29T09:54:33.001Z,11.98
2023-04-29T09:57:01.011Z,11.89
2023-04-29T09:59:27.890Z,11.72
2023-04-29T10:01:56.887Z,11.68
2023-04-29T10:04:26.241Z,11.68
2023-04-29T10:06:54.652Z,11.72
2023-04-29T10:09:22.834Z,11.77
2023-04-29T10:11:51.520Z,11.81
2023-04-29T10:14:20.320Z,11.91
2023-04-29T10:16:49.019Z,11.92
2023-04-29T10:19:20.287Z,12.19
2023-04-29T10:21:50.011Z,12.40
2023-04-29T10:24:18.999Z,12.53
2023-04-29T10:26:47.319Z,12.73
2023-04-29T10:29:15.628Z,12.87
2023-04-29T10:31:43.681Z,12.85
2023-04-29T10:34:12.954Z,12.90
2023-04-29T10:36:40.908Z,12.84
2023-04-29T10:39:12.583Z,12.85
2023-04-29T10:41:47.124Z,13.05
2023-04-29T10:44:14.402Z,13.04
2023-04-29T10:46:41.177Z,13.01
2023-04-29T10:49:08.271Z,12.98
2023-04-29T10:51:39.232Z,13.18
2023-04-29T10:54:12.599Z,13.66
2023-04-29T10:56:44.574Z,14.28
2023-04-29T10:59:16.111Z,14.46
2023-04-29T11:01:49.947Z,14.68
2023-04-29T11:04:18.111Z,14.82
2023-04-29T11:06:47.389Z,14.78
2023-04-29T11:09:25.875Z,14.58
2023-04-29T11:11:54.019Z,14.76
2023-04-29T11:14:50.581Z,14.92
2023-04-29T11:17:20.345Z,15.07
2023-04-29T11:19:49.949Z,15.19
2023-04-29T11:22:19.424Z,15.16
2023-04-29T11:25:00.587Z,14.92
2023-04-29T11:27:42.398Z,14.73
2023-04-29T11:30:09.734Z,14.71
2023-04-29T11:32:42.593Z,14.88
2023-04-29T11:35:11.987Z,14.99
2023-04-29T11:37:39.494Z,14.98
2023-04-29T11:40:07.259Z,14.78
2023-04-29T11:42:50.199Z,14.42
2023-04-29T11:45:20.390Z,14.07
2023-04-29T11:47:48.369Z,13.90
2023-04-29T11:50:19.075Z,13.83
2023-04-29T11:52:50.005Z,13.72
2023-04-29T11:55:16.948Z,13.66
2023-04-29T11:57:43.696Z,13.82
2023-04-29T12:00:12.854Z,14.03
2023-04-29T12:02:44.793Z,14.32
2023-04-29T12:05:12.874Z,14.64
2023-04-29T12:07:40.105Z,14.98
2023-04-29T12:10:11.425Z,15.20
2023-04-29T12:12:40.947Z,15.39
2023-04-29T12:15:10.071Z,15.41
2023-04-29T12:17:37.450Z,15.24
2023-04-29T12:20:04.550Z,15.20
2023-04-29T12:22:32.634Z,15.34
2023-04-29T12:24:59.272Z,15.46
2023-04-29T12:27:27.251Z,15.40
2023-04-29T12:29:53.949Z,15.55
2023-04-29T12:32:24.988Z,15.63
2023-04-29T12:34:53.144Z,15.43
2023-04-29T12:37:22.410Z,15.40
2023-04-29T12:39:50.140Z,15.53
2023-04-29T12:42:19.471Z,15.54
2023-04-29T12:44:49.775Z,15.63
2023-04-29T12:47:16.970Z,15.67
2023-04-29T12:49:47.931Z,15.78
2023-04-29T12:52:14.613Z,15.81
2023-04-29T12:54:44.785Z,15.72
2023-04-29T12:57:12.158Z,15.61
2023-04-29T12:59:41.537Z,15.47
2023-04-29T13:02:08.419Z,15.44
2023-04-29T13:04:35.090Z,15.43
2023-04-29T13:07:02.613Z,15.41
2023-04-29T13:09:30.481Z,15.40
2023-04-29T13:11:57.731Z,15.47
2023-04-29T13:14:24.315Z,15.57
2023-04-29T13:16:51.296Z,15.50
2023-04-29T13:19:29.435Z,15.60
2023-04-29T13:22:01.563Z,15.65
2023-04-29T13:24:28.224Z,15.61
2023-04-29T13:26:54.928Z,15.64
2023-04-29T13:29:21.489Z,15.68
2023-04-29T13:31:48.215Z,15.92
2023-04-29T13:34:15.016Z,16.02
2023-04-29T13:36:41.639Z,15.80
2023-04-29T13:39:08.520Z,15.63
2023-04-29T13:41:35.691Z,15.57
2023-04-29T13:44:03.413Z,15.57
2023-04-29T13:46:32.133Z,15.60
2023-04-29T13:49:15.990Z,15.51
2023-04-29T13:52:26.313Z,15.63
2023-04-29T13:59:44.877Z,15.95
2023-04-29T14:02:25.136Z,16.12
2023-04-29T14:04:53.224Z,16.26
2023-04-29T14:07:20.540Z,16.60
2023-04-29T14:09:47.139Z,16.81
2023-04-29T14:12:13.760Z,17.28
2023-04-29T14:14:40.527Z,17.83
2023-04-29T14:17:07.220Z,18.34
2023-04-29T14:19:33.844Z,18.34
2023-04-29T14:22:00.370Z,18.07
2023-04-29T14:24:26.964Z,18.07
2023-04-29T14:26:53.571Z,18.11
2023-04-29T14:29:20.239Z,17.97
2023-04-29T14:31:47.094Z,17.96
2023-04-29T14:34:14.000Z,17.80
2023-04-29T14:36:40.966Z,17.69
2023-04-29T14:39:08.353Z,17.97
2023-04-29T14:41:34.994Z,17.94
2023-04-29T14:44:01.561Z,18.16
2023-04-29T14:46:29.162Z,18.24
2023-04-29T14:48:56.162Z,17.85
2023-04-29T14:51:22.746Z,17.53
2023-04-29T14:53:49.340Z,17.53
2023-04-29T14:56:19.137Z,17.85
2023-04-29T14:58:45.788Z,18.06
2023-04-29T15:01:12.411Z,18.26
2023-04-29T15:06:08.593Z,18.29
2023-04-29T15:08:35.387Z,17.82
2023-04-29T15:11:01.936Z,17.97
2023-04-29T15:13:30.031Z,18.00
2023-04-29T15:15:57.533Z,18.21
2023-04-29T15:18:26.317Z,18.37
2023-04-29T15:20:53.718Z,18.43
2023-04-29T15:23:20.462Z,18.45
2023-04-29T15:25:47.171Z,18.13
2023-04-29T15:28:13.879Z,18.00
2023-04-29T15:30:40.516Z,17.59
2023-04-29T15:33:07.138Z,17.31
2023-04-29T15:35:35.227Z,17.00
2023-04-29T15:38:01.852Z,16.91
2023-04-29T15:40:28.460Z,17.31
2023-04-29T15:42:55.138Z,17.49
2023-04-29T15:45:21.849Z,17.61
2023-04-29T15:47:48.699Z,17.73
2023-04-29T15:50:15.449Z,17.61
2023-04-29T15:52:42.206Z,17.32
2023-04-29T15:55:09.006Z,17.14
2023-04-29T15:57:41.026Z,17.08
2023-04-29T16:00:08.816Z,16.94
2023-04-29T16:02:35.518Z,16.79
2023-04-29T16:05:02.111Z,16.70
2023-04-29T16:07:28.675Z,16.60
2023-04-29T16:09:55.453Z,16.43
2023-04-29T16:12:22.258Z,16.48
2023-04-29T16:14:48.853Z,16.38
2023-04-29T16:17:15.525Z,16.36
2023-04-29T16:19:42.184Z,16.16
2023-04-29T16:22:08.829Z,15.91
2023-04-29T16:24:35.513Z,15.75
2023-04-29T16:27:02.846Z,15.65
2023-04-29T16:29:29.454Z,15.65
2023-04-29T16:31:56.149Z,15.67
2023-04-29T16:34:22.736Z,15.64
2023-04-29T16:36:49.404Z,15.67
2023-04-29T16:39:15.965Z,15.64
2023-04-29T16:41:42.486Z,15.67
2023-04-29T16:44:09.193Z,15.54
2023-04-29T16:46:35.990Z,15.46
2023-04-29T16:49:03.011Z,15.40
2023-04-29T16:51:29.664Z,15.22
2023-04-29T16:53:56.632Z,15.04
2023-04-29T16:56:23.186Z,14.96
2023-04-29T16:58:49.890Z,14.83
2023-04-29T17:01:19.788Z,14.67
2023-04-29T17:03:50.032Z,14.46
2023-04-29T17:06:16.795Z,14.30
2023-04-29T17:08:44.428Z,14.14
2023-04-29T17:11:11.332Z,14.00
2023-04-29T17:13:38.093Z,13.87
2023-04-29T17:16:05.169Z,13.87
2023-04-29T17:18:31.806Z,13.87
2023-04-29T17:20:59.479Z,13.94
2023-04-29T17:23:26.088Z,13.93
2023-04-29T17:25:54.585Z,14.02
2023-04-29T17:28:21.265Z,14.04
2023-04-29T17:30:47.897Z,14.02
2023-04-29T17:33:14.804Z,14.00
2023-04-29T17:35:41.578Z,13.96
2023-04-29T17:38:08.456Z,14.00
2023-04-29T17:40:35.094Z,14.02
2023-04-29T17:43:01.773Z,14.07
2023-04-29T17:45:28.579Z,14.16
2023-04-29T17:47:55.507Z,14.23
2023-04-29T17:50:22.039Z,14.23
2023-04-29T17:52:48.607Z,14.18
2023-04-29T17:55:15.313Z,14.17
2023-04-29T17:57:42.050Z,14.10
2023-04-29T18:00:10.686Z,13.97
2023-04-29T18:02:37.512Z,13.76
2023-04-29T18:05:04.429Z,13.56
2023-04-29T18:07:31.076Z,13.38
2023-04-29T18:09:58.004Z,13.16
2023-04-29T18:12:25.076Z,13.11
2023-04-29T18:14:52.252Z,12.97
2023-04-29T18:17:19.360Z,12.79
2023-04-29T18:19:49.623Z,12.60
2023-04-29T18:22:16.418Z,12.46
2023-04-29T18:24:43.491Z,12.25
2023-04-29T18:27:10.363Z,12.09
2023-04-29T18:29:37.087Z,11.92
2023-04-29T18:32:05.136Z,11.78
2023-04-29T18:34:34.107Z,11.65
2023-04-29T18:37:01.584Z,11.53
2023-04-29T18:39:28.265Z,11.41
2023-04-29T18:41:54.934Z,11.31
2023-04-29T18:44:21.544Z,11.23
2023-04-29T18:46:48.194Z,11.12
2023-04-29T18:49:17.013Z,10.97
2023-04-29T18:51:46.999Z,10.88
2023-04-29T18:54:15.964Z,10.75
2023-04-29T18:56:46.394Z,10.69
2023-04-29T18:59:15.846Z,10.55
2023-04-29T19:01:43.180Z,10.42
2023-04-29T19:04:10.314Z,10.31
2023-04-29T19:06:37.229Z,10.21
2023-04-29T19:09:05.499Z,10.07
2023-04-29T19:11:32.205Z,9.94
2023-04-29T19:13:59.012Z,9.87
2023-04-29T19:16:26.051Z,9.77
2023-04-29T19:18:52.855Z,9.69
2023-04-29T19:21:20.158Z,9.57
2023-04-29T19:23:47.205Z,9.47
2023-04-29T19:26:13.876Z,9.38
2023-04-29T19:28:40.713Z,9.32
2023-04-29T19:31:07.357Z,9.28
2023-04-29T19:33:33.964Z,9.19
2023-04-29T19:36:00.801Z,9.18
2023-04-29T19:38:27.442Z,9.16
2023-04-29T19:40:55.706Z,9.10
2023-04-29T19:43:22.874Z,9.04
2023-04-29T19:45:49.751Z,8.97
2023-04-29T19:48:16.394Z,8.87
2023-04-29T19:50:43.277Z,8.81
2023-04-29T19:53:11.321Z,8.75
2023-04-29T19:55:39.828Z,8.67
2023-04-29T19:58:07.148Z,8.56
2023-04-29T20:00:34.397Z,8.46
2023-04-29T20:03:01.396Z,8.37
2023-04-29T20:05:28.900Z,8.25
2023-04-29T20:07:55.898Z,8.13
2023-04-29T20:10:22.533Z,8.10
2023-04-29T20:12:49.164Z,8.01
2023-04-29T20:15:15.931Z,7.94
2023-04-29T20:17:42.626Z,7.88
2023-04-29T20:20:09.502Z,7.85
2023-04-29T20:22:36.375Z,7.85
2023-04-29T20:25:04.140Z,7.85
2023-04-29T20:27:30.997Z,7.86
2023-04-29T20:29:57.558Z,7.84
2023-04-29T20:32:24.418Z,7.79
2023-04-29T20:34:52.056Z,7.82
2023-04-29T20:37:20.175Z,7.77
2023-04-29T20:39:47.702Z,7.71
2023-04-29T20:42:14.513Z,7.70
2023-04-29T20:44:41.407Z,7.63
2023-04-29T20:47:08.336Z,7.61
2023-04-29T20:49:35.043Z,7.55
2023-04-29T20:52:01.907Z,7.53
2023-04-29T20:54:28.631Z,7.54
2023-04-29T20:56:55.432Z,7.58
2023-04-29T20:59:22.109Z,7.63
2023-04-29T21:01:48.977Z,7.70
2023-04-29T21:04:15.854Z,7.81
2023-04-29T21:06:42.963Z,7.86
2023-04-29T21:09:09.720Z,7.92
2023-04-29T21:11:36.362Z,7.92
2023-04-29T21:14:02.979Z,7.89
2023-04-29T21:16:29.612Z,7.89
2023-04-29T21:18:56.434Z,7.84
2023-04-29T21:21:26.100Z,7.85
2023-04-29T21:23:52.951Z,7.88
2023-04-29T21:26:19.844Z,7.95
2023-04-29T21:28:46.739Z,8.09
2023-04-29T21:31:16.399Z,8.07
2023-04-29T21:33:45.759Z,8.02
2023-04-29T21:36:13.479Z,7.95
2023-04-29T21:38:42.552Z,7.88
2023-04-29T21:41:24.006Z,7.82
2023-04-29T21:43:50.964Z,7.71
2023-04-29T21:46:18.166Z,7.65
2023-04-29T21:48:45.309Z,7.57
2023-04-29T21:51:12.274Z,7.57
2023-04-29T21:53:39.155Z,7.53
2023-04-29T21:56:06.635Z,7.54
2023-04-29T21:58:33.933Z,7.51
2023-04-29T22:01:05.732Z,7.58
2023-04-29T22:03:32.633Z,7.55
2023-04-29T22:05:59.512Z,7.51
2023-04-29T22:08:26.447Z,7.70
2023-04-29T22:10:53.010Z,7.67
2023-04-29T22:13:19.788Z,7.68
2023-04-29T22:15:49.135Z,7.74
2023-04-29T22:18:15.709Z,7.70
2023-04-29T22:20:42.292Z,7.63
2023-04-29T22:23:08.930Z,7.55
2023-04-29T22:25:35.955Z,7.44
2023-04-29T22:28:02.650Z,7.46
2023-04-29T22:30:29.226Z,7.35
2023-04-29T22:32:56.747Z,7.30
2023-04-29T22:35:23.440Z,7.22
2023-04-29T22:37:50.519Z,7.28
2023-04-29T22:40:17.294Z,7.24
2023-04-29T22:42:43.850Z,7.20
2023-04-29T22:45:12.027Z,7.16
2023-04-29T22:47:38.731Z,7.07
2023-04-29T22:50:06.043Z,7.04
2023-04-29T22:52:32.892Z,7.10
2023-04-29T22:55:00.012Z,7.10
2023-04-29T22:57:26.693Z,7.03
2023-04-29T22:59:57.087Z,6.99
2023-04-29T23:02:28.949Z,7.03
2023-04-29T23:04:59.322Z,6.95
2023-04-29T23:07:26.173Z,6.96
2023-04-29T23:09:53.361Z,7.07
2023-04-29T23:12:20.733Z,7.06
2023-04-29T23:14:47.564Z,6.99
2023-04-29T23:17:14.162Z,6.83
2023-04-29T23:19:40.784Z,6.72
2023-04-29T23:22:07.396Z,6.64
2023-04-29T23:24:37.765Z,6.58
2023-04-29T23:27:04.583Z,6.46
2023-04-29T23:29:33.944Z,6.34
2023-04-29T23:32:01.264Z,6.34
2023-04-29T23:34:27.893Z,6.31
2023-04-29T23:36:54.703Z,6.24
2023-04-29T23:39:21.339Z,6.13
2023-04-29T23:41:47.851Z,6.00
2023-04-29T23:44:14.348Z,5.94
2023-04-29T23:46:40.977Z,5.92
2023-04-29T23:49:07.829Z,5.92
2023-04-29T23:51:34.472Z,6.03
2023-04-29T23:54:01.165Z,6.06
2023-04-29T23:56:29.137Z,6.10
2023-04-29T23:58:56.249Z,6.13
